Time;durP1;ratioP1;P1;durP2;ratioP2;P2;SDS_P1;SDS_P2;PMS_P1;PMS_P2;Temp;Humidity;BMP_temperature;BMP_pressure;BME280_temperature;BME280_humidity;BME280_pressure;Samples;Min_cycle;Max_cycle;Signal;HPM_P1;HPM_P2
2022/12/31 00:00:50;;;;;;;13.35;2.97;;;;;;;;;;5020842;28;20052;-90
2022/12/31 00:03:15;;;;;;;17.00;2.53;;;;;;;;;;5016656;28;20044;-90
2022/12/31 00:05:41;;;;;;;28.42;2.80;;;;;;;;;;4999160;28;20045;-90
2022/12/31 00:08:06;;;;;;;17.83;2.60;;;;;;;;;;5006548;28;20103;-91
2022/12/31 00:10:38;;;;;;;20.27;2.50;;;;;;;;;;5016203;28;20061;-90
2022/12/31 00:13:03;;;;;;;17.65;3.20;;;;;;;;;;5020056;28;20018;-91
2022/12/31 00:15:29;;;;;;;16.57;2.57;;;;;;;;;;4998581;28;20068;-90
2022/12/31 00:17:54;;;;;;;27.98;2.78;;;;;;;;;;4994724;28;20321;-91
2022/12/31 00:20:19;;;;;;;16.93;2.93;;;;;;;;;;4997537;28;20492;-91
2022/12/31 00:22:44;;;;;;;22.30;2.60;;;;;;;;;;5015955;28;20353;-90
2022/12/31 00:25:10;;;;;;;23.47;2.60;;;;;;;;;;5018091;28;20036;-90
2022/12/31 00:27:35;;;;;;;22.40;3.23;;;;;;;;;;4999179;28;20287;-91
2022/12/31 00:30:00;;;;;;;17.77;3.70;;;;;;;;;;5003745;28;20280;-90
2022/12/31 00:32:25;;;;;;;18.75;2.72;;;;;;;;;;5021399;28;20511;-90
2022/12/31 00:34:51;;;;;;;13.40;2.40;;;;;;;;;;5022198;28;20017;-90
2022/12/31 00:37:16;;;;;;;20.63;2.80;;;;;;;;;;5002926;28;20037;-90
2022/12/31 00:39:41;;;;;;;16.05;2.50;;;;;;;;;;5024908;28;20029;-90
2022/12/31 00:42:06;;;;;;;20.77;2.72;;;;;;;;;;5020216;28;20053;-89
2022/12/31 00:44:32;;;;;;;17.70;4.05;;;;;;;;;;5003758;28;20033;-91
2022/12/31 00:46:57;;;;;;;19.33;2.88;;;;;;;;;;4995486;28;20060;-90
2022/12/31 00:49:22;;;;;;;15.98;2.13;;;;;;;;;;5023323;28;20022;-90
2022/12/31 00:51:47;;;;;;;16.77;2.30;;;;;;;;;;5002711;28;20027;-91
2022/12/31 00:54:13;;;;;;;17.50;2.42;;;;;;;;;;5002281;28;20280;-90
2022/12/31 00:56:38;;;;;;;19.13;2.53;;;;;;;;;;4999496;28;20021;-90
2022/12/31 00:59:03;;;;;;;16.63;2.40;;;;;;;;;;5013038;28;20127;-90
2022/12/31 01:01:33;;;;;;;20.58;3.42;;;;;;;;;;4994393;28;20307;-91
2022/12/31 01:04:04;;;;;;;17.50;2.40;;;;;;;;;;5003380;28;20504;-91
2022/12/31 01:06:29;;;;;;;17.15;2.63;;;;;;;;;;5003851;28;20072;-90
2022/12/31 01:08:55;;;;;;;18.45;2.33;;;;;;;;;;5003286;28;20409;-91
2022/12/31 01:11:27;;;;;;;18.25;2.55;;;;;;;;;;4998867;28;20036;-91
2022/12/31 01:13:57;;;;;;;13.38;2.38;;;;;;;;;;5021796;28;20026;-91
2022/12/31 01:16:28;;;;;;;15.15;2.97;;;;;;;;;;5016010;28;20375;-91
2022/12/31 01:18:54;;;;;;;17.73;2.72;;;;;;;;;;5021412;28;20014;-90
2022/12/31 01:21:20;;;;;;;19.55;2.65;;;;;;;;;;5015738;28;20495;-90
2022/12/31 01:23:46;;;;;;;19.77;2.60;;;;;;;;;;5004190;28;20571;-90
2022/12/31 01:26:12;;;;;;;21.90;2.85;;;;;;;;;;4998263;28;20030;-90
2022/12/31 01:28:37;;;;;;;18.30;2.60;;;;;;;;;;4996541;28;20112;-89
2022/12/31 01:31:04;;;;;;;19.80;2.87;;;;;;;;;;5006594;28;20120;-90
2022/12/31 01:33:29;;;;;;;12.45;2.50;;;;;;;;;;5002079;28;20346;-90
2022/12/31 01:35:54;;;;;;;15.00;3.07;;;;;;;;;;5002192;28;20548;-90
2022/12/31 01:38:19;;;;;;;15.88;2.70;;;;;;;;;;5014821;28;20705;-90
2022/12/31 01:40:44;;;;;;;12.67;1.97;;;;;;;;;;5010847;28;20028;-90
2022/12/31 01:43:13;;;;;;;16.20;2.63;;;;;;;;;;5009346;28;20275;-91
2022/12/31 01:45:40;;;;;;;20.63;3.13;;;;;;;;;;5026477;28;20033;-90
2022/12/31 01:48:07;;;;;;;16.15;2.53;;;;;;;;;;5007757;28;20129;-91
2022/12/31 01:50:33;;;;;;;15.95;2.50;;;;;;;;;;5005965;28;20025;-91
2022/12/31 01:53:01;;;;;;;16.58;2.20;;;;;;;;;;5011515;28;20021;-90
2022/12/31 01:55:31;;;;;;;20.25;3.00;;;;;;;;;;5002556;28;20026;-90
2022/12/31 01:58:08;;;;;;;19.48;2.65;;;;;;;;;;5003356;28;20112;-91
2022/12/31 02:00:33;;;;;;;15.93;3.08;;;;;;;;;;4997920;28;20455;-91
2022/12/31 02:02:58;;;;;;;12.32;2.53;;;;;;;;;;5020099;28;20029;-90
2022/12/31 02:05:24;;;;;;;19.35;2.63;;;;;;;;;;5001797;28;20038;-90
2022/12/31 02:07:49;;;;;;;16.50;2.77;;;;;;;;;;4998488;28;20029;-91
2022/12/31 02:10:14;;;;;;;22.85;2.83;;;;;;;;;;5021700;28;20493;-91
2022/12/31 02:12:40;;;;;;;21.38;3.15;;;;;;;;;;5001976;28;20037;-92
2022/12/31 02:15:05;;;;;;;19.35;2.63;;;;;;;;;;4999782;28;20025;-91
2022/12/31 02:17:57;;;;;;;10.45;2.67;;;;;;;;;;4998443;28;20144;-91
2022/12/31 02:20:52;;;;;;;17.90;2.40;;;;;;;;;;5000892;28;20042;-92
2022/12/31 02:23:17;;;;;;;16.20;2.58;;;;;;;;;;4933711;28;20038;-92
2022/12/31 02:26:03;;;;;;;17.63;3.03;;;;;;;;;;5003341;28;20032;-91
2022/12/31 02:28:47;;;;;;;25.38;4.05;;;;;;;;;;5013938;28;20279;-91
2022/12/31 02:31:17;;;;;;;12.57;2.70;;;;;;;;;;4999648;28;20056;-91
2022/12/31 02:33:51;;;;;;;19.92;3.08;;;;;;;;;;5017892;28;20087;-90
2022/12/31 02:36:19;;;;;;;17.38;3.00;;;;;;;;;;4997774;28;20103;-91
2022/12/31 02:38:45;;;;;;;18.58;3.05;;;;;;;;;;5010485;28;20095;-92
2022/12/31 02:41:11;;;;;;;15.65;2.83;;;;;;;;;;5002583;28;20057;-91
2022/12/31 02:43:44;;;;;;;12.93;2.72;;;;;;;;;;5005785;28;20374;-92
2022/12/31 02:46:16;;;;;;;15.73;3.08;;;;;;;;;;5003326;28;20028;-91
2022/12/31 02:48:48;;;;;;;16.63;2.75;;;;;;;;;;4995574;28;20123;-92
2022/12/31 02:51:16;;;;;;;15.43;2.58;;;;;;;;;;4998505;28;20481;-91
2022/12/31 02:53:57;;;;;;;13.18;2.20;;;;;;;;;;4994655;28;20028;-91
2022/12/31 02:56:33;;;;;;;14.63;2.20;;;;;;;;;;5015620;28;20028;-90
2022/12/31 03:04:31;;;;;;;15.98;2.25;;;;;;;;;;4999724;28;20134;-91
2022/12/31 03:06:58;;;;;;;11.00;1.92;;;;;;;;;;4998338;28;20130;-89
2022/12/31 03:09:23;;;;;;;14.75;2.40;;;;;;;;;;4996858;28;20033;-90
2022/12/31 03:14:32;;;;;;;12.88;1.88;;;;;;;;;;5012263;28;20297;-90
2022/12/31 03:16:58;;;;;;;12.47;1.83;;;;;;;;;;4995905;28;20104;-90
2022/12/31 03:22:26;;;;;;;13.32;2.35;;;;;;;;;;5012554;28;20132;-90
2022/12/31 03:27:37;;;;;;;8.38;1.50;;;;;;;;;;5012555;28;20096;-90
2022/12/31 03:30:02;;;;;;;10.80;1.88;;;;;;;;;;5000417;28;20452;-90
2022/12/31 03:32:28;;;;;;;15.05;2.10;;;;;;;;;;5002685;28;20116;-90
2022/12/31 03:34:54;;;;;;;9.98;1.75;;;;;;;;;;4998917;28;20051;-91
2022/12/31 03:37:20;;;;;;;9.27;1.80;;;;;;;;;;5011416;28;20075;-89
2022/12/31 03:39:45;;;;;;;10.55;1.85;;;;;;;;;;4998483;28;20033;-90
2022/12/31 03:42:10;;;;;;;9.73;2.00;;;;;;;;;;4997025;28;20113;-91
2022/12/31 03:44:35;;;;;;;13.20;2.08;;;;;;;;;;5014905;28;20382;-90
2022/12/31 03:47:01;;;;;;;8.70;1.40;;;;;;;;;;5001087;28;20025;-90
2022/12/31 03:49:26;;;;;;;10.30;2.72;;;;;;;;;;4997476;28;20314;-90
2022/12/31 03:51:51;;;;;;;10.13;1.63;;;;;;;;;;4994285;28;20396;-90
2022/12/31 03:54:16;;;;;;;12.53;1.73;;;;;;;;;;4993593;28;20037;-90
2022/12/31 03:56:42;;;;;;;12.23;1.88;;;;;;;;;;5012425;28;20279;-90
2022/12/31 03:59:07;;;;;;;12.47;1.93;;;;;;;;;;5015641;28;20056;-90
2022/12/31 04:01:32;;;;;;;12.65;1.95;;;;;;;;;;5004061;28;20322;-90
2022/12/31 04:03:57;;;;;;;10.17;1.53;;;;;;;;;;5002389;28;20049;-90
2022/12/31 04:06:23;;;;;;;10.90;1.60;;;;;;;;;;5002106;28;20278;-90
2022/12/31 04:08:48;;;;;;;10.68;1.45;;;;;;;;;;5012796;28;20288;-91
2022/12/31 04:11:13;;;;;;;10.03;1.67;;;;;;;;;;5001408;28;20036;-90
2022/12/31 04:13:38;;;;;;;9.90;1.47;;;;;;;;;;5001392;28;20845;-90
2022/12/31 04:16:03;;;;;;;8.90;1.40;;;;;;;;;;4995302;28;21068;-90
2022/12/31 04:18:29;;;;;;;5.63;1.07;;;;;;;;;;5002281;28;20762;-90
2022/12/31 04:20:54;;;;;;;6.73;1.00;;;;;;;;;;5015321;28;20889;-90
2022/12/31 04:23:19;;;;;;;8.57;1.50;;;;;;;;;;4998727;28;20287;-90
2022/12/31 04:25:44;;;;;;;5.45;1.00;;;;;;;;;;5013811;28;20057;-89
2022/12/31 04:28:10;;;;;;;6.03;0.93;;;;;;;;;;5000404;28;20588;-90
2022/12/31 04:30:35;;;;;;;5.53;0.90;;;;;;;;;;5001357;28;20278;-90
2022/12/31 04:33:00;;;;;;;3.25;0.82;;;;;;;;;;4993946;28;20032;-90
2022/12/31 04:35:25;;;;;;;5.33;0.93;;;;;;;;;;4997392;28;20017;-90
2022/12/31 04:37:50;;;;;;;3.78;0.88;;;;;;;;;;5001155;28;20267;-90
2022/12/31 04:40:16;;;;;;;4.93;1.00;;;;;;;;;;4997823;28;20076;-90
2022/12/31 04:42:41;;;;;;;4.43;0.87;;;;;;;;;;4998483;28;20325;-90
2022/12/31 04:45:06;;;;;;;4.15;0.75;;;;;;;;;;5024281;28;20283;-90
2022/12/31 04:47:32;;;;;;;5.15;0.90;;;;;;;;;;5000677;28;20485;-90
2022/12/31 04:49:57;;;;;;;4.50;1.00;;;;;;;;;;5016234;28;20024;-90
2022/12/31 04:52:22;;;;;;;6.57;0.80;;;;;;;;;;5020194;28;20018;-90
2022/12/31 04:54:47;;;;;;;4.18;0.90;;;;;;;;;;4998988;28;20263;-90
2022/12/31 04:57:13;;;;;;;2.80;0.68;;;;;;;;;;5004281;28;20045;-90
2022/12/31 04:59:38;;;;;;;2.83;0.67;;;;;;;;;;5000703;28;20018;-90
2022/12/31 05:02:03;;;;;;;3.90;0.70;;;;;;;;;;5001126;28;20833;-89
2022/12/31 05:04:28;;;;;;;5.30;0.77;;;;;;;;;;5016405;28;20532;-89
2022/12/31 05:06:54;;;;;;;3.67;0.70;;;;;;;;;;5006458;28;20666;-90
2022/12/31 05:09:20;;;;;;;3.37;0.90;;;;;;;;;;5001513;28;20033;-89
2022/12/31 05:11:45;;;;;;;6.60;0.85;;;;;;;;;;4998046;28;20291;-90
2022/12/31 05:14:11;;;;;;;5.82;0.93;;;;;;;;;;5003680;28;20044;-90
2022/12/31 05:16:36;;;;;;;6.22;1.05;;;;;;;;;;5008348;28;20449;-90
2022/12/31 05:19:01;;;;;;;3.87;0.90;;;;;;;;;;4998139;28;20381;-90
2022/12/31 05:21:26;;;;;;;4.30;1.02;;;;;;;;;;5019058;28;20274;-90
2022/12/31 05:23:52;;;;;;;6.50;1.17;;;;;;;;;;5006184;28;20018;-90
2022/12/31 05:26:17;;;;;;;7.25;1.17;;;;;;;;;;4997910;28;20033;-90
2022/12/31 05:28:43;;;;;;;5.47;1.27;;;;;;;;;;5008107;28;20034;-89
2022/12/31 05:31:09;;;;;;;7.97;1.40;;;;;;;;;;5002725;28;20535;-89
2022/12/31 05:33:34;;;;;;;6.65;1.50;;;;;;;;;;5004602;28;20038;-89
2022/12/31 05:35:59;;;;;;;7.97;1.33;;;;;;;;;;5004014;28;20026;-90
2022/12/31 05:38:25;;;;;;;5.75;1.33;;;;;;;;;;5030257;28;20017;-90
2022/12/31 05:41:00;;;;;;;5.43;1.00;;;;;;;;;;5000259;28;20022;-90
2022/12/31 05:43:25;;;;;;;8.20;1.42;;;;;;;;;;5004558;28;20041;-90
2022/12/31 05:45:50;;;;;;;5.77;1.10;;;;;;;;;;5001438;28;20022;-89
2022/12/31 05:48:15;;;;;;;8.13;1.30;;;;;;;;;;5021202;28;20282;-89
2022/12/31 05:50:41;;;;;;;11.40;1.75;;;;;;;;;;5013490;28;20291;-90
2022/12/31 05:53:06;;;;;;;8.07;1.70;;;;;;;;;;4993840;28;20075;-90
2022/12/31 05:55:31;;;;;;;7.87;1.60;;;;;;;;;;5023273;28;20273;-90
2022/12/31 05:57:56;;;;;;;9.15;1.77;;;;;;;;;;5021246;28;20286;-90
2022/12/31 06:00:22;;;;;;;7.57;1.90;;;;;;;;;;5006674;28;20595;-90
2022/12/31 06:02:47;;;;;;;9.68;2.05;;;;;;;;;;5017775;28;20841;-91
2022/12/31 06:05:12;;;;;;;10.07;2.17;;;;;;;;;;4997164;28;20022;-91
2022/12/31 06:07:38;;;;;;;10.17;2.00;;;;;;;;;;5000926;28;20286;-91
2022/12/31 06:10:03;;;;;;;10.43;2.13;;;;;;;;;;5001246;28;20273;-91
2022/12/31 06:12:29;;;;;;;9.80;2.20;;;;;;;;;;5022360;28;20278;-91
2022/12/31 06:14:54;;;;;;;7.45;2.20;;;;;;;;;;5001210;28;20040;-90
2022/12/31 06:17:21;;;;;;;9.82;2.28;;;;;;;;;;5005180;28;20026;-90
2022/12/31 06:19:46;;;;;;;7.30;2.13;;;;;;;;;;5018389;28;20207;-91
2022/12/31 06:22:11;;;;;;;8.27;1.70;;;;;;;;;;5019565;28;20089;-91
2022/12/31 06:24:37;;;;;;;6.85;1.70;;;;;;;;;;4995757;28;20710;-90
2022/12/31 06:27:02;;;;;;;8.47;1.80;;;;;;;;;;5002217;28;20022;-91
2022/12/31 06:29:27;;;;;;;8.05;1.58;;;;;;;;;;5014907;28;20282;-91
2022/12/31 06:31:52;;;;;;;7.93;1.63;;;;;;;;;;5003442;28;20037;-91
2022/12/31 06:34:18;;;;;;;5.30;1.50;;;;;;;;;;5018582;28;20386;-91
2022/12/31 06:36:43;;;;;;;6.03;1.45;;;;;;;;;;5004530;28;20028;-91
2022/12/31 06:39:08;;;;;;;9.27;1.40;;;;;;;;;;4998270;28;20123;-92
2022/12/31 06:41:33;;;;;;;8.25;1.52;;;;;;;;;;5009200;28;20030;-91
2022/12/31 06:43:59;;;;;;;3.35;1.10;;;;;;;;;;5011293;28;20199;-90
2022/12/31 06:46:25;;;;;;;4.65;1.20;;;;;;;;;;5021560;28;20116;-91
2022/12/31 06:48:50;;;;;;;4.30;1.00;;;;;;;;;;5026762;28;20040;-90
2022/12/31 06:51:19;;;;;;;5.75;1.23;;;;;;;;;;5001881;28;20022;-88
2022/12/31 06:53:50;;;;;;;5.10;1.33;;;;;;;;;;5003917;28;20029;-89
2022/12/31 06:56:20;;;;;;;8.23;1.70;;;;;;;;;;5024486;28;20025;-89
2022/12/31 06:58:46;;;;;;;7.60;1.42;;;;;;;;;;5008887;28;20129;-89
2022/12/31 07:01:20;;;;;;;56.95;5.20;;;;;;;;;;4999829;28;20022;-90
2022/12/31 07:03:55;;;;;;;6.85;1.30;;;;;;;;;;5008140;28;20049;-89
2022/12/31 07:06:34;;;;;;;5.65;0.90;;;;;;;;;;5001573;28;20057;-91
2022/12/31 07:09:05;;;;;;;9.35;1.48;;;;;;;;;;5020158;28;20017;-91
2022/12/31 07:11:34;;;;;;;3.28;0.85;;;;;;;;;;5002060;28;20146;-91
2022/12/31 07:14:20;;;;;;;29.77;2.75;;;;;;;;;;5003366;28;20149;-91
2022/12/31 07:16:46;;;;;;;7.38;1.27;;;;;;;;;;5020370;28;20025;-92
2022/12/31 07:19:20;;;;;;;5.32;1.20;;;;;;;;;;5006116;28;20071;-91
2022/12/31 07:21:47;;;;;;;4.28;1.08;;;;;;;;;;5008690;28;20025;-90
2022/12/31 07:24:12;;;;;;;4.95;1.10;;;;;;;;;;5022103;28;20198;-90
2022/12/31 07:26:41;;;;;;;27.98;2.72;;;;;;;;;;5018097;28;20022;-90
2022/12/31 07:29:23;;;;;;;4.25;1.10;;;;;;;;;;5024305;28;20120;-90
2022/12/31 07:31:59;;;;;;;4.82;1.17;;;;;;;;;;4999842;28;20029;-90
2022/12/31 07:34:36;;;;;;;21.33;2.20;;;;;;;;;;5014915;28;20032;-93
2022/12/31 07:37:01;;;;;;;5.45;1.00;;;;;;;;;;5013297;28;20028;-90
2022/12/31 07:39:49;;;;;;;4.07;0.80;;;;;;;;;;5015459;28;20029;-89
2022/12/31 07:42:17;;;;;;;65.53;4.80;;;;;;;;;;4996394;28;20322;-90
2022/12/31 07:45:01;;;;;;;5.10;0.70;;;;;;;;;;5005094;28;20508;-91
2022/12/31 07:47:28;;;;;;;3.72;0.80;;;;;;;;;;5004663;28;20214;-91
2022/12/31 07:49:53;;;;;;;54.13;4.00;;;;;;;;;;5004079;28;20021;-90
2022/12/31 07:52:19;;;;;;;3.42;0.90;;;;;;;;;;5000893;28;20044;-91
2022/12/31 07:54:45;;;;;;;7.07;1.08;;;;;;;;;;5005013;28;20029;-90
2022/12/31 07:57:11;;;;;;;3.72;0.90;;;;;;;;;;5005940;28;20437;-96
2022/12/31 07:59:46;;;;;;;20.80;2.20;;;;;;;;;;4996396;28;20117;-90
2022/12/31 08:02:23;;;;;;;18.38;2.05;;;;;;;;;;5015958;28;20141;-92
2022/12/31 08:05:07;;;;;;;20.27;1.55;;;;;;;;;;5014396;28;20041;-90
2022/12/31 08:07:55;;;;;;;66.13;4.93;;;;;;;;;;4993039;28;20045;-91
2022/12/31 08:10:36;;;;;;;59.38;5.40;;;;;;;;;;4996388;28;20068;-91
2022/12/31 08:13:04;;;;;;;3.63;0.65;;;;;;;;;;5017560;28;20158;-91
2022/12/31 08:15:29;;;;;;;0.80;0.15;;;;;;;;;;4995395;28;20029;-92
2022/12/31 08:17:54;;;;;;;19.27;1.65;;;;;;;;;;5010257;28;20034;-92
2022/12/31 08:20:20;;;;;;;25.58;2.33;;;;;;;;;;4996028;28;20021;-93
2022/12/31 08:22:58;;;;;;;2.97;0.32;;;;;;;;;;4995852;28;20040;-91
2022/12/31 08:25:23;;;;;;;71.65;4.57;;;;;;;;;;5008943;28;20725;-92
2022/12/31 08:28:07;;;;;;;0.50;0.10;;;;;;;;;;4996441;28;20108;-94
2022/12/31 08:30:52;;;;;;;1.92;0.20;;;;;;;;;;5015910;28;20306;-94
2022/12/31 08:33:38;;;;;;;7.38;0.75;;;;;;;;;;5003603;28;20032;-94
2022/12/31 08:36:22;;;;;;;2.15;0.22;;;;;;;;;;5003850;28;20041;-94
2022/12/31 08:38:56;;;;;;;1.13;0.13;;;;;;;;;;5011086;28;20022;-94
2022/12/31 08:41:29;;;;;;;0.50;0.17;;;;;;;;;;5000000;28;20043;-94
2022/12/31 08:43:54;;;;;;;0.83;0.30;;;;;;;;;;5006702;28;20030;-94
2022/12/31 08:46:28;;;;;;;5.55;0.90;;;;;;;;;;5005728;28;20080;-95
2022/12/31 08:48:53;;;;;;;1.00;0.22;;;;;;;;;;5000683;28;20033;-94
2022/12/31 08:51:20;;;;;;;1.30;0.30;;;;;;;;;;5018188;28;20080;-94
2022/12/31 08:53:47;;;;;;;0.57;0.20;;;;;;;;;;5016174;28;20020;-95
2022/12/31 08:56:25;;;;;;;1.50;0.20;;;;;;;;;;5005607;28;20574;-94
2022/12/31 08:59:00;;;;;;;0.40;0.20;;;;;;;;;;5007319;28;20018;-95
2022/12/31 09:01:28;;;;;;;1.30;0.13;;;;;;;;;;5010030;28;20025;-94
2022/12/31 09:04:04;;;;;;;2.95;0.40;;;;;;;;;;5015185;28;20049;-94
2022/12/31 09:06:30;;;;;;;1.85;0.20;;;;;;;;;;5022729;28;20045;-94
2022/12/31 09:09:12;;;;;;;1.70;0.40;;;;;;;;;;5019090;28;20046;-94
2022/12/31 09:11:44;;;;;;;1.85;0.45;;;;;;;;;;5019475;28;20666;-94
2022/12/31 09:14:12;;;;;;;2.40;0.50;;;;;;;;;;5026274;28;20036;-94
2022/12/31 09:16:37;;;;;;;2.10;0.50;;;;;;;;;;5009776;28;20053;-95
2022/12/31 09:19:02;;;;;;;1.20;0.40;;;;;;;;;;5004402;28;20438;-94
2022/12/31 09:21:28;;;;;;;2.25;0.40;;;;;;;;;;5005493;28;20594;-94
2022/12/31 09:23:53;;;;;;;0.65;0.20;;;;;;;;;;5019230;28;20022;-94
2022/12/31 09:26:33;;;;;;;7.60;0.57;;;;;;;;;;5027907;28;20477;-94
2022/12/31 09:28:58;;;;;;;1.55;0.40;;;;;;;;;;5023192;28;20040;-94
2022/12/31 09:31:44;;;;;;;1.45;0.30;;;;;;;;;;5021803;28;20029;-94
2022/12/31 09:34:12;;;;;;;0.85;0.30;;;;;;;;;;5027221;28;20470;-94
2022/12/31 09:36:45;;;;;;;1.15;0.22;;;;;;;;;;5027830;28;20028;-94
2022/12/31 09:39:19;;;;;;;3.38;0.50;;;;;;;;;;5010615;28;20022;-93
2022/12/31 09:41:54;;;;;;;3.50;0.57;;;;;;;;;;5002871;28;20040;-95
2022/12/31 09:44:37;;;;;;;2.58;0.68;;;;;;;;;;5022539;28;20040;-94
2022/12/31 09:47:22;;;;;;;3.95;1.17;;;;;;;;;;5021847;28;20120;-95
2022/12/31 09:49:47;;;;;;;5.78;1.20;;;;;;;;;;5005249;28;20095;-94
2022/12/31 09:52:20;;;;;;;5.87;1.20;;;;;;;;;;4994805;28;20545;-94
2022/12/31 09:55:10;;;;;;;5.72;1.38;;;;;;;;;;5019451;28;20037;-94
2022/12/31 09:57:54;;;;;;;4.93;1.20;;;;;;;;;;5004671;28;20022;-94
2022/12/31 10:00:21;;;;;;;5.20;1.30;;;;;;;;;;5005545;28;20030;-95
2022/12/31 10:02:54;;;;;;;5.43;1.48;;;;;;;;;;5001458;28;20046;-96
2022/12/31 10:05:28;;;;;;;4.88;1.13;;;;;;;;;;5006943;28;20056;-95
2022/12/31 10:08:00;;;;;;;6.88;1.42;;;;;;;;;;5006874;28;20087;-90
2022/12/31 10:10:33;;;;;;;5.45;1.08;;;;;;;;;;5015795;28;20252;-93
2022/12/31 10:12:58;;;;;;;4.03;0.80;;;;;;;;;;4996187;28;20022;-93
2022/12/31 10:15:23;;;;;;;3.42;0.70;;;;;;;;;;5001219;28;20033;-92
2022/12/31 10:18:24;;;;;;;5.33;0.90;;;;;;;;;;4999036;28;20068;-95
2022/12/31 10:21:18;;;;;;;5.95;1.08;;;;;;;;;;5019198;28;20278;-92
2022/12/31 10:24:13;;;;;;;4.57;0.70;;;;;;;;;;5003896;28;20159;-94
2022/12/31 10:26:54;;;;;;;3.10;0.80;;;;;;;;;;5007512;28;20021;-93
2022/12/31 10:29:59;;;;;;;5.22;1.10;;;;;;;;;;5018794;28;20433;-93
2022/12/31 10:32:39;;;;;;;5.13;1.30;;;;;;;;;;5012216;28;20120;-94
2022/12/31 10:35:14;;;;;;;5.38;1.20;;;;;;;;;;5015597;28;20436;-94
2022/12/31 10:37:54;;;;;;;6.20;1.48;;;;;;;;;;5004012;28;20049;-94
2022/12/31 10:40:40;;;;;;;4.60;1.00;;;;;;;;;;4989546;28;20033;-95
2022/12/31 10:43:24;;;;;;;3.97;1.15;;;;;;;;;;5008613;28;20056;-94
2022/12/31 10:45:49;;;;;;;4.47;1.10;;;;;;;;;;5004228;28;20126;-96
2022/12/31 10:48:21;;;;;;;5.30;1.50;;;;;;;;;;5005612;28;20485;-96
2022/12/31 10:51:18;;;;;;;5.28;1.40;;;;;;;;;;5005855;28;20030;-95
2022/12/31 10:53:55;;;;;;;5.55;1.40;;;;;;;;;;4997271;28;20102;-95
2022/12/31 10:56:38;;;;;;;5.53;1.25;;;;;;;;;;4995729;28;20053;-94
2022/12/31 10:59:04;;;;;;;;;;;;;;;;;;5016720;28;20065;-95
2022/12/31 11:01:29;;;;;;;4.70;1.33;;;;;;;;;;5006121;28;19956;-95
2022/12/31 11:03:54;;;;;;;5.57;1.60;;;;;;;;;;5022203;28;20045;-94
2022/12/31 11:06:19;;;;;;;5.43;1.40;;;;;;;;;;4992657;28;20029;-94
2022/12/31 11:08:45;;;;;;;6.77;1.50;;;;;;;;;;4994071;28;20325;-95
2022/12/31 11:11:29;;;;;;;5.40;1.50;;;;;;;;;;5004912;28;20340;-95
2022/12/31 11:13:57;;;;;;;6.03;1.73;;;;;;;;;;5006427;28;20507;-93
2022/12/31 11:16:41;;;;;;;5.45;1.40;;;;;;;;;;5021895;28;20026;-95
2022/12/31 11:19:22;;;;;;;5.30;1.27;;;;;;;;;;5005931;28;20029;-95
2022/12/31 11:22:11;;;;;;;6.05;1.30;;;;;;;;;;4996620;28;20025;-95
2022/12/31 11:24:48;;;;;;;4.60;1.25;;;;;;;;;;4973384;28;20039;-94
2022/12/31 11:27:37;;;;;;;5.45;1.33;;;;;;;;;;4978328;28;20051;-95
2022/12/31 11:30:20;;;;;;;5.80;1.67;;;;;;;;;;4972808;28;20041;-96
2022/12/31 11:33:12;;;;;;;5.72;1.60;;;;;;;;;;4968998;28;20034;-96
2022/12/31 11:35:53;;;;;;;5.72;1.83;;;;;;;;;;4970827;28;20030;-95
2022/12/31 11:38:27;;;;;;;5.75;1.63;;;;;;;;;;4971493;28;20059;-94
2022/12/31 11:40:59;;;;;;;6.40;2.28;;;;;;;;;;4968569;28;20069;-95
2022/12/31 11:43:56;;;;;;;7.35;3.25;;;;;;;;;;4973098;28;20100;-94
2022/12/31 11:46:33;;;;;;;8.75;3.95;;;;;;;;;;4967990;28;20478;-95
2022/12/31 11:49:12;;;;;;;8.75;3.38;;;;;;;;;;4978999;28;20045;-95
2022/12/31 11:51:43;;;;;;;6.63;2.10;;;;;;;;;;4976593;28;20030;-95
2022/12/31 11:54:11;;;;;;;7.78;3.00;;;;;;;;;;4982394;28;20026;-94
2022/12/31 11:56:39;;;;;;;6.78;1.80;;;;;;;;;;4967580;28;20458;-95
2022/12/31 11:59:08;;;;;;;4.75;1.35;;;;;;;;;;4977822;28;20035;-95
2022/12/31 12:01:46;;;;;;;6.35;1.40;;;;;;;;;;4987957;28;20041;-95
2022/12/31 12:04:11;;;;;;;6.93;1.80;;;;;;;;;;5005537;28;20189;-95
2022/12/31 12:06:36;;;;;;;5.80;1.80;;;;;;;;;;4992446;28;20803;-95
2022/12/31 12:09:04;;;;;;;5.20;1.75;;;;;;;;;;5008481;28;20068;-95
2022/12/31 12:11:31;;;;;;;6.18;1.88;;;;;;;;;;5000098;28;20026;-94
2022/12/31 12:13:57;;;;;;;5.93;1.90;;;;;;;;;;4990219;28;20018;-95
2022/12/31 12:16:24;;;;;;;6.72;1.85;;;;;;;;;;4979971;28;21242;-96
2022/12/31 12:18:59;;;;;;;6.43;1.65;;;;;;;;;;4982870;28;20714;-96
2022/12/31 12:21:25;;;;;;;8.75;1.50;;;;;;;;;;4978117;28;20042;-95
2022/12/31 12:23:57;;;;;;;6.35;1.75;;;;;;;;;;5000199;28;20582;-96
2022/12/31 12:26:40;;;;;;;8.00;2.10;;;;;;;;;;4989123;28;20029;-95
2022/12/31 12:29:10;;;;;;;7.20;2.07;;;;;;;;;;4983481;28;20283;-95
2022/12/31 12:31:36;;;;;;;7.18;1.85;;;;;;;;;;4987756;28;20287;-94
2022/12/31 12:34:02;;;;;;;12.32;2.10;;;;;;;;;;4988026;28;20049;-94
2022/12/31 12:36:28;;;;;;;9.60;1.88;;;;;;;;;;4988770;28;20041;-96
2022/12/31 12:39:00;;;;;;;11.13;1.98;;;;;;;;;;4985005;28;20057;-93
2022/12/31 12:41:26;;;;;;;13.55;1.90;;;;;;;;;;5003408;28;20021;-94
2022/12/31 12:44:21;;;;;;;10.15;1.80;;;;;;;;;;4997985;28;20045;-95
2022/12/31 12:46:50;;;;;;;11.27;2.17;;;;;;;;;;4983101;28;20103;-95
2022/12/31 12:49:27;;;;;;;15.23;2.20;;;;;;;;;;4981044;28;20092;-96
2022/12/31 12:52:04;;;;;;;12.07;2.10;;;;;;;;;;4985760;28;20022;-95
2022/12/31 12:54:33;;;;;;;10.43;1.90;;;;;;;;;;5002616;28;20377;-94
2022/12/31 12:57:31;;;;;;;13.90;2.17;;;;;;;;;;4991003;28;20101;-94
2022/12/31 13:00:02;;;;;;;13.50;2.67;;;;;;;;;;4989271;28;20109;-94
2022/12/31 13:02:27;;;;;;;14.45;2.10;;;;;;;;;;4988264;28;20994;-94
2022/12/31 13:05:01;;;;;;;11.65;2.10;;;;;;;;;;5019896;28;20116;-94
2022/12/31 13:07:47;;;;;;;14.77;2.40;;;;;;;;;;5024532;28;20037;-94
2022/12/31 13:10:12;;;;;;;14.15;2.15;;;;;;;;;;4971566;28;20235;-94
2022/12/31 13:12:44;;;;;;;17.13;2.37;;;;;;;;;;5006797;28;20088;-92
2022/12/31 13:15:32;;;;;;;15.05;2.15;;;;;;;;;;5001091;28;20263;-94
2022/12/31 13:18:13;;;;;;;15.98;2.40;;;;;;;;;;5018692;28;20085;-93
2022/12/31 13:20:52;;;;;;;13.30;2.28;;;;;;;;;;5005309;28;20053;-94
2022/12/31 13:23:17;;;;;;;21.23;2.75;;;;;;;;;;5002884;28;20026;-93
2022/12/31 13:25:51;;;;;;;16.27;2.23;;;;;;;;;;5002064;28;20526;-93
2022/12/31 13:28:17;;;;;;;17.13;2.50;;;;;;;;;;5007665;28;20484;-94
2022/12/31 13:30:45;;;;;;;18.23;2.53;;;;;;;;;;5008789;28;20014;-93
2022/12/31 13:33:19;;;;;;;12.38;2.17;;;;;;;;;;5001499;28;20064;-94
2022/12/31 13:35:44;;;;;;;16.17;2.50;;;;;;;;;;4996982;28;20056;-94
2022/12/31 13:38:27;;;;;;;14.23;2.10;;;;;;;;;;5009268;28;20132;-94
2022/12/31 13:40:55;;;;;;;11.23;2.40;;;;;;;;;;5004868;28;20064;-94
2022/12/31 13:56:29;;;;;;;17.80;2.70;;;;;;;;;;5020401;28;20041;-96
2022/12/31 13:58:59;;;;;;;23.20;2.70;;;;;;;;;;5012486;28;20046;-96
2022/12/31 14:01:24;;;;;;;16.95;2.83;;;;;;;;;;5006215;28;20037;-95
2022/12/31 14:03:57;;;;;;;15.70;2.60;;;;;;;;;;5025110;28;20454;-96
2022/12/31 14:06:23;;;;;;;16.20;2.92;;;;;;;;;;5013258;28;20021;-95
2022/12/31 14:08:48;;;;;;;18.50;2.50;;;;;;;;;;5030934;28;20022;-95
2022/12/31 14:11:18;;;;;;;22.90;2.78;;;;;;;;;;5014816;28;20034;-96
2022/12/31 14:13:51;;;;;;;14.45;2.33;;;;;;;;;;5014308;28;20040;-95
2022/12/31 14:16:19;;;;;;;22.02;3.08;;;;;;;;;;5027422;28;20025;-96
2022/12/31 14:18:48;;;;;;;16.95;2.65;;;;;;;;;;5027697;28;20033;-94
2022/12/31 14:21:27;;;;;;;14.40;2.40;;;;;;;;;;5014050;28;20544;-93
2022/12/31 14:24:11;;;;;;;19.52;2.83;;;;;;;;;;5006576;28;20053;-95
2022/12/31 14:26:40;;;;;;;17.80;2.72;;;;;;;;;;5006550;28;20149;-94
2022/12/31 14:29:25;;;;;;;21.38;2.88;;;;;;;;;;5020407;28;20097;-95
2022/12/31 14:31:56;;;;;;;20.52;2.90;;;;;;;;;;4984810;28;20049;-95
2022/12/31 14:34:28;;;;;;;18.63;2.53;;;;;;;;;;5009131;28;20107;-93
2022/12/31 14:37:00;;;;;;;16.25;2.42;;;;;;;;;;4997955;28;20030;-93
2022/12/31 14:39:35;;;;;;;20.00;3.07;;;;;;;;;;5011080;28;20422;-92
2022/12/31 14:42:23;;;;;;;18.88;2.55;;;;;;;;;;5019701;28;20274;-94
2022/12/31 14:44:49;;;;;;;16.13;2.78;;;;;;;;;;5000453;28;20026;-94
2022/12/31 14:47:27;;;;;;;17.38;2.85;;;;;;;;;;5029644;28;20040;-95
2022/12/31 14:49:58;;;;;;;16.83;3.08;;;;;;;;;;4999994;28;20053;-92
2022/12/31 14:52:27;;;;;;;19.30;3.10;;;;;;;;;;4997261;28;20497;-95
2022/12/31 14:55:02;;;;;;;16.13;2.50;;;;;;;;;;4997784;28;20030;-94
2022/12/31 14:57:35;;;;;;;19.02;3.05;;;;;;;;;;5002626;28;20054;-95
2022/12/31 15:00:20;;;;;;;17.00;2.65;;;;;;;;;;5008934;28;20013;-96
2022/12/31 15:02:50;;;;;;;24.17;3.20;;;;;;;;;;5022506;28;20393;-95
2022/12/31 15:05:17;;;;;;;18.88;2.83;;;;;;;;;;5004594;28;20034;-94
2022/12/31 15:07:46;;;;;;;22.45;2.70;;;;;;;;;;5002273;28;20440;-95
2022/12/31 15:10:14;;;;;;;16.35;2.63;;;;;;;;;;5020564;28;20033;-94
2022/12/31 15:13:06;;;;;;;20.08;2.95;;;;;;;;;;4998810;28;20025;-94
2022/12/31 15:15:39;;;;;;;18.98;3.20;;;;;;;;;;4991590;28;20038;-91
2022/12/31 15:18:04;;;;;;;;;;;;;;;;;;4998266;28;20026;-93
2022/12/31 15:20:32;;;;;;;17.57;3.40;;;;;;;;;;5003865;28;19913;-92
2022/12/31 15:22:58;;;;;;;21.35;3.17;;;;;;;;;;5026914;28;20369;-92
2022/12/31 15:25:26;;;;;;;13.63;3.00;;;;;;;;;;5001051;28;20844;-93